Terminal Aerodrome Forecast
Issued by NWS Atlanta, GA

Home | Current Version | Previous Version | Text Only | Print | Product List | Glossary On
Versions: 1 2 3 4 5 6 7 8 9 10 11 12 13 14 15 16 17 18 19 20 21 22 23 24 25
000
FTUS42 KFFC 182358 AAA
TAFMCN
TAF AMD
KMCN 182358Z 1900/1924 VRB04KT P6SM VCTS BKN060CB
     FM190100 VRB04KT P6SM SCT020 BKN040
     FM190500 15005KT 6SM -RA OVC015
     FM190900 18006KT 4SM -SHRA BR OVC007 PROB30 1912/1916 4SM -TSRA
      BKN010CB
     FM191600 19008G16KT 4SM -TSRA BKN010CB OVC025
     FM192000 21008G16KT P6SM BKN015
     FM192300 21008G16KT P6SM BKN030=

USA.gov is the U.S. government's official web portal to all federal, state and local government web resources and services.